Time;durP1;ratioP1;P1;durP2;ratioP2;P2;SDS_P1;SDS_P2;PMS_P1;PMS_P2;Temp;Humidity;BMP_temperature;BMP_pressure;BME280_temperature;BME280_humidity;BME280_pressure;Samples;Min_cycle;Max_cycle;Signal;HPM_P1;HPM_P2
2020/12/20 00:01:59;;;;;;;;;;;5.10;99.90;;;;;;5108406;28;19931;-73
2020/12/20 00:04:26;;;;;;;;;;;5.00;99.90;;;;;;5104363;28;20406;-73
2020/12/20 00:06:52;;;;;;;;;;;5.10;99.90;;;;;;5113175;28;19930;-73
2020/12/20 00:09:19;;;;;;;;;;;5.10;99.90;;;;;;5108365;28;19949;-73
2020/12/20 00:11:46;;;;;;;;;;;5.20;99.90;;;;;;5102750;28;19924;-73
2020/12/20 00:14:28;;;;;;;;;;;5.10;99.90;;;;;;5108433;28;19924;-74
2020/12/20 00:16:56;;;;;;;;;;;5.10;99.90;;;;;;5112853;28;19972;-73
2020/12/20 00:19:23;;;;;;;;;;;5.10;99.90;;;;;;5108985;28;19940;-73
2020/12/20 00:21:53;;;;;;;;;;;5.00;99.90;;;;;;5114518;28;20018;-73
2020/12/20 00:24:19;;;;;;;;;;;5.00;99.90;;;;;;5113075;28;20022;-73
2020/12/20 00:26:46;;;;;;;;;;;5.00;99.90;;;;;;5112813;28;20020;-73
2020/12/20 00:29:12;;;;;;;;;;;5.00;99.90;;;;;;5112927;28;19923;-73
2020/12/20 00:31:38;;;;;;;;;;;5.10;99.90;;;;;;5115558;28;20286;-73
2020/12/20 00:34:06;;;;;;;;;;;5.20;99.90;;;;;;5104740;28;19919;-73
2020/12/20 00:36:32;;;;;;;;;;;5.20;99.90;;;;;;5116239;28;20573;-73
2020/12/20 00:38:59;;;;;;;;;;;5.20;99.90;;;;;;5114629;28;19963;-73
2020/12/20 00:41:25;;;;;;;;;;;5.20;99.90;;;;;;5109091;28;19927;-73
2020/12/20 00:43:51;;;;;;;;;;;5.20;99.90;;;;;;5115513;28;20372;-72
2020/12/20 00:46:18;;;;;;;;;;;5.20;99.90;;;;;;5113008;28;20010;-72
2020/12/20 00:48:45;;;;;;;;;;;5.20;99.90;;;;;;5116146;28;19935;-71
2020/12/20 00:51:12;;;;;;;;;;;5.20;99.90;;;;;;5112958;28;20324;-72
2020/12/20 00:53:38;;;;;;;;;;;5.20;99.90;;;;;;5114290;28;20399;-74
2020/12/20 00:56:12;;;;;;;;;;;5.20;99.90;;;;;;5099417;28;20394;-72
2020/12/20 00:58:38;;;;;;;;;;;5.20;99.90;;;;;;5094697;28;19924;-73
2020/12/20 01:01:05;;;;;;;;;;;5.30;99.90;;;;;;5104727;28;19928;-73
2020/12/20 01:03:31;;;;;;;;;;;5.20;99.90;;;;;;5114144;28;19945;-77
2020/12/20 01:05:57;;;;;;;;;;;5.20;99.90;;;;;;5110761;28;20386;-73
2020/12/20 01:08:26;;;;;;;;;;;5.20;99.90;;;;;;5114380;28;19969;-73
2020/12/20 01:10:53;;;;;;;;;;;5.20;99.90;;;;;;5093816;28;19930;-73
2020/12/20 01:13:19;;;;;;;;;;;5.20;99.90;;;;;;5113190;28;19953;-73
2020/12/20 01:15:47;;;;;;;;;;;5.20;99.90;;;;;;5111032;28;19920;-73
2020/12/20 01:18:13;;;;;;;;;;;5.20;99.90;;;;;;5114166;28;19924;-73
2020/12/20 01:20:40;;;;;;;;;;;5.20;99.90;;;;;;5112101;28;19924;-73
2020/12/20 01:23:07;;;;;;;;;;;5.20;99.90;;;;;;5094525;28;20373;-73
2020/12/20 01:25:35;;;;;;;;;;;5.10;99.90;;;;;;5093387;28;19920;-74
2020/12/20 01:28:13;;;;;;;;;;;5.10;99.90;;;;;;5113269;28;19923;-77
2020/12/20 01:30:41;;;;;;;;;;;5.10;99.90;;;;;;5113636;28;19931;-73
2020/12/20 01:33:08;;;;;;;;;;;5.10;99.90;;;;;;5112841;28;20300;-73
2020/12/20 01:35:45;;;;;;;;;;;5.00;99.90;;;;;;5114432;28;19974;-73
2020/12/20 01:38:11;;;;;;;;;;;5.10;99.90;;;;;;5112566;28;19927;-76
2020/12/20 01:40:39;;;;;;;;;;;5.00;99.90;;;;;;5107560;28;20365;-73
2020/12/20 01:43:06;;;;;;;;;;;5.10;99.90;;;;;;5105795;28;20029;-73
2020/12/20 01:45:35;;;;;;;;;;;5.10;99.90;;;;;;5113485;28;20384;-73
2020/12/20 01:48:02;;;;;;;;;;;5.10;99.90;;;;;;5112260;28;20022;-73
2020/12/20 01:50:31;;;;;;;;;;;5.10;99.90;;;;;;5095681;28;19924;-73
2020/12/20 01:52:58;;;;;;;;;;;5.00;99.90;;;;;;5112439;28;20399;-73
2020/12/20 01:55:25;;;;;;;;;;;5.10;99.90;;;;;;5096347;28;19934;-74
2020/12/20 01:58:02;;;;;;;;;;;5.00;99.90;;;;;;5094460;28;20390;-73
2020/12/20 02:00:47;;;;;;;;;;;5.10;99.90;;;;;;5108143;28;20400;-73
2020/12/20 02:03:32;;;;;;;;;;;5.10;99.90;;;;;;5093059;27;19988;-74
2020/12/20 02:05:59;;;;;;;;;;;5.10;99.90;;;;;;5076559;28;19978;-71
2020/12/20 02:08:26;;;;;;;;;;;5.10;99.90;;;;;;5082474;28;19931;-71
2020/12/20 02:11:03;;;;;;;;;;;5.00;99.90;;;;;;5094097;28;20014;-74
2020/12/20 02:13:31;;;;;;;;;;;5.00;99.90;;;;;;5089050;28;19923;-74
2020/12/20 02:15:57;;;;;;;;;;;4.90;99.90;;;;;;5096480;28;19923;-73
2020/12/20 02:18:24;;;;;;;;;;;4.90;99.90;;;;;;5086523;28;19927;-74
2020/12/20 02:20:52;;;;;;;;;;;5.00;99.90;;;;;;5095383;28;19923;-71
2020/12/20 02:23:20;;;;;;;;;;;5.00;99.90;;;;;;5093198;28;19985;-73
2020/12/20 02:25:55;;;;;;;;;;;5.00;99.90;;;;;;5096306;28;19938;-73
2020/12/20 02:28:33;;;;;;;;;;;5.00;99.90;;;;;;5093083;28;20468;-72
2020/12/20 02:31:19;;;;;;;;;;;5.00;99.90;;;;;;5086521;28;20016;-74
2020/12/20 02:33:45;;;;;;;;;;;5.00;99.90;;;;;;5093631;28;19932;-72
2020/12/20 02:36:11;;;;;;;;;;;4.90;99.90;;;;;;5113808;28;19924;-72
2020/12/20 02:38:41;;;;;;;;;;;5.10;99.90;;;;;;5092639;28;20463;-73
2020/12/20 02:41:16;;;;;;;;;;;4.90;99.90;;;;;;5094579;28;19930;-73
2020/12/20 02:43:42;;;;;;;;;;;5.00;99.90;;;;;;5094487;28;19924;-79
2020/12/20 02:46:13;;;;;;;;;;;5.00;99.90;;;;;;5096267;28;19924;-74
2020/12/20 02:48:46;;;;;;;;;;;4.90;99.90;;;;;;5113275;28;20022;-73
2020/12/20 02:51:12;;;;;;;;;;;5.00;99.90;;;;;;5108279;28;19946;-73
2020/12/20 02:53:41;;;;;;;;;;;4.90;99.90;;;;;;5112779;28;19930;-71
2020/12/20 02:56:10;;;;;;;;;;;4.80;99.90;;;;;;5107095;28;20380;-80
2020/12/20 02:58:37;;;;;;;;;;;4.80;99.90;;;;;;5112601;28;19966;-72
2020/12/20 03:01:19;;;;;;;;;;;4.80;99.90;;;;;;5092180;28;19924;-73
2020/12/20 03:03:46;;;;;;;;;;;4.90;99.90;;;;;;5093970;28;19974;-73
2020/12/20 03:06:12;;;;;;;;;;;4.90;99.90;;;;;;5089641;28;20365;-76
2020/12/20 03:08:39;;;;;;;;;;;4.90;99.90;;;;;;5093504;28;19928;-73
2020/12/20 03:11:08;;;;;;;;;;;4.90;99.90;;;;;;5107443;28;19924;-72
2020/12/20 03:13:37;;;;;;;;;;;4.90;99.90;;;;;;5109938;28;19920;-73
2020/12/20 03:16:03;;;;;;;;;;;4.90;99.90;;;;;;5111010;28;19981;-73
2020/12/20 03:18:36;;;;;;;;;;;4.90;99.90;;;;;;5101375;28;19926;-72
2020/12/20 03:21:03;;;;;;;;;;;4.90;99.90;;;;;;5096332;28;19930;-72
2020/12/20 03:23:41;;;;;;;;;;;4.90;99.90;;;;;;5092080;28;19924;-73
2020/12/20 03:26:24;;;;;;;;;;;4.90;99.90;;;;;;5092488;28;20028;-73
2020/12/20 03:29:12;;;;;;;;;;;4.90;99.90;;;;;;5091356;28;19924;-71
2020/12/20 03:32:01;;;;;;;;;;;4.80;99.90;;;;;;5102667;28;19923;-72
2020/12/20 03:34:39;;;;;;;;;;;4.80;99.90;;;;;;5092543;28;19924;-73
2020/12/20 03:37:13;;;;;;;;;;;4.80;99.90;;;;;;5089107;28;19924;-74
2020/12/20 03:39:50;;;;;;;;;;;4.80;99.90;;;;;;5091207;28;19934;-74
2020/12/20 03:42:17;;;;;;;;;;;4.90;99.90;;;;;;5100793;28;19930;-74
2020/12/20 03:44:44;;;;;;;;;;;4.80;99.90;;;;;;5102028;28;19923;-73
2020/12/20 03:47:11;;;;;;;;;;;4.80;99.90;;;;;;5096260;28;20395;-77
2020/12/20 03:49:39;;;;;;;;;;;4.80;99.90;;;;;;5102199;28;19927;-73
2020/12/20 03:52:05;;;;;;;;;;;4.80;99.90;;;;;;5101395;28;19927;-72
2020/12/20 03:54:45;;;;;;;;;;;4.80;99.90;;;;;;5111086;28;19955;-72
2020/12/20 03:57:12;;;;;;;;;;;4.80;99.90;;;;;;5106311;28;19930;-71
2020/12/20 03:59:39;;;;;;;;;;;4.80;99.90;;;;;;5111459;28;19924;-71
2020/12/20 04:02:10;;;;;;;;;;;4.90;99.90;;;;;;5108597;28;19931;-79
2020/12/20 04:04:36;;;;;;;;;;;4.70;99.90;;;;;;5092344;28;20330;-71
2020/12/20 04:07:03;;;;;;;;;;;4.80;99.90;;;;;;5096660;28;19924;-73
2020/12/20 04:09:32;;;;;;;;;;;4.80;99.90;;;;;;5109956;28;19919;-75
2020/12/20 04:12:07;;;;;;;;;;;4.80;99.90;;;;;;5100918;28;19927;-74
2020/12/20 04:14:34;;;;;;;;;;;4.80;99.90;;;;;;5105629;28;19976;-73
2020/12/20 04:17:01;;;;;;;;;;;4.80;99.90;;;;;;5111503;28;20381;-73
2020/12/20 04:19:31;;;;;;;;;;;4.80;99.90;;;;;;5106887;28;19920;-76
2020/12/20 04:22:05;;;;;;;;;;;4.90;99.90;;;;;;5111610;28;20018;-73
2020/12/20 04:24:49;;;;;;;;;;;4.80;99.90;;;;;;5096085;28;19968;-73
2020/12/20 04:27:19;;;;;;;;;;;4.80;99.90;;;;;;5090007;28;20304;-73
2020/12/20 04:29:55;;;;;;;;;;;4.80;99.90;;;;;;5088962;28;20031;-73
2020/12/20 04:32:23;;;;;;;;;;;4.90;99.90;;;;;;5090100;28;19924;-73
2020/12/20 04:34:50;;;;;;;;;;;4.90;99.90;;;;;;5089555;28;19972;-73
2020/12/20 04:37:16;;;;;;;;;;;4.90;99.90;;;;;;5103326;28;20025;-79
2020/12/20 04:40:09;;;;;;;;;;;4.80;99.90;;;;;;5105471;28;19924;-71
2020/12/20 04:42:44;;;;;;;;;;;4.80;99.90;;;;;;5098784;28;19931;-73
2020/12/20 04:45:12;;;;;;;;;;;4.80;99.90;;;;;;5105389;28;20328;-73
2020/12/20 04:47:49;;;;;;;;;;;4.70;99.90;;;;;;5110976;28;19931;-73
2020/12/20 04:50:19;;;;;;;;;;;4.60;99.90;;;;;;5093050;28;19952;-73
2020/12/20 04:52:47;;;;;;;;;;;4.50;99.90;;;;;;5090938;28;20026;-72
2020/12/20 04:55:24;;;;;;;;;;;4.40;99.90;;;;;;5088098;28;19924;-73
2020/12/20 04:58:18;;;;;;;;;;;4.40;99.90;;;;;;5089907;28;19924;-71
2020/12/20 05:00:45;;;;;;;;;;;4.30;99.90;;;;;;5090791;28;19939;-73
2020/12/20 05:03:13;;;;;;;;;;;4.30;99.90;;;;;;5090077;28;19976;-74
2020/12/20 05:05:45;;;;;;;;;;;4.40;99.90;;;;;;5089085;28;19975;-73
2020/12/20 05:08:14;;;;;;;;;;;4.50;99.90;;;;;;5109650;28;19923;-76
2020/12/20 05:10:40;;;;;;;;;;;4.30;99.90;;;;;;5110707;28;20373;-73
2020/12/20 05:13:09;;;;;;;;;;;4.30;99.90;;;;;;5112560;28;19977;-73
2020/12/20 05:15:36;;;;;;;;;;;4.30;99.90;;;;;;5091882;28;19928;-73
2020/12/20 05:18:22;;;;;;;;;;;4.30;99.90;;;;;;5093644;28;19931;-73
2020/12/20 05:21:24;;;;;;;;;;;4.20;99.90;;;;;;5091640;28;20211;-73
2020/12/20 05:23:50;;;;;;;;;;;4.30;99.90;;;;;;5101442;28;19928;-72
2020/12/20 05:26:31;;;;;;;;;;;4.30;99.90;;;;;;5110531;28;20310;-72
2020/12/20 05:29:07;;;;;;;;;;;4.30;99.90;;;;;;5115872;28;19969;-72
2020/12/20 05:31:33;;;;;;;;;;;4.20;99.90;;;;;;5110255;28;19947;-73
2020/12/20 05:34:21;;;;;;;;;;;4.20;99.90;;;;;;5112701;28;19924;-73
2020/12/20 05:36:48;;;;;;;;;;;4.30;99.90;;;;;;5102832;28;20372;-71
2020/12/20 05:39:37;;;;;;;;;;;4.20;99.90;;;;;;5114191;28;19930;-74
2020/12/20 05:42:12;;;;;;;;;;;4.20;99.90;;;;;;5097322;28;19924;-73
2020/12/20 05:44:39;;;;;;;;;;;4.20;99.90;;;;;;5113503;28;20334;-73
2020/12/20 05:47:14;;;;;;;;;;;4.20;99.90;;;;;;5109663;28;19966;-74
2020/12/20 05:49:46;;;;;;;;;;;4.20;99.90;;;;;;5104115;28;20277;-75
2020/12/20 05:52:17;;;;;;;;;;;4.20;99.90;;;;;;5100445;28;20022;-73
2020/12/20 05:54:44;;;;;;;;;;;4.30;99.90;;;;;;5114732;28;20388;-73
2020/12/20 05:57:11;;;;;;;;;;;4.30;99.90;;;;;;5104916;28;19949;-81
2020/12/20 05:59:37;;;;;;;;;;;4.30;99.90;;;;;;5114753;28;20013;-73
2020/12/20 06:02:04;;;;;;;;;;;4.30;99.90;;;;;;5112010;28;20000;-73
2020/12/20 06:04:31;;;;;;;;;;;4.40;99.90;;;;;;5101986;28;19923;-73
2020/12/20 06:06:58;;;;;;;;;;;4.30;99.90;;;;;;5098733;28;19978;-71
2020/12/20 06:09:25;;;;;;;;;;;4.20;99.90;;;;;;5113541;28;19934;-73
2020/12/20 06:11:52;;;;;;;;;;;4.20;99.90;;;;;;5094634;28;19943;-73
2020/12/20 06:14:19;;;;;;;;;;;4.20;99.90;;;;;;5111804;28;19946;-71
2020/12/20 06:16:47;;;;;;;;;;;4.30;99.90;;;;;;5114502;28;20404;-71
2020/12/20 06:19:22;;;;;;;;;;;4.30;99.90;;;;;;5109495;28;19930;-73
2020/12/20 06:21:58;;;;;;;;;;;4.30;99.90;;;;;;5114496;28;19923;-70
2020/12/20 06:24:27;;;;;;;;;;;4.30;99.90;;;;;;5110119;28;19951;-70
2020/12/20 06:26:57;;;;;;;;;;;4.30;99.90;;;;;;5114641;28;19924;-71
2020/12/20 06:29:24;;;;;;;;;;;4.30;99.90;;;;;;5092545;28;19931;-71
2020/12/20 06:31:52;;;;;;;;;;;4.30;99.90;;;;;;5093848;28;19974;-71
2020/12/20 06:34:19;;;;;;;;;;;4.20;99.90;;;;;;5104840;28;19967;-73
2020/12/20 06:36:46;;;;;;;;;;;4.20;99.90;;;;;;5107901;28;19977;-72
2020/12/20 06:39:16;;;;;;;;;;;4.30;99.90;;;;;;5103083;28;20023;-78
2020/12/20 06:41:44;;;;;;;;;;;4.30;99.90;;;;;;5112199;28;20023;-73
2020/12/20 06:44:12;;;;;;;;;;;4.40;99.90;;;;;;5102839;28;20274;-73
2020/12/20 06:46:39;;;;;;;;;;;4.20;99.90;;;;;;5112902;28;19966;-72
2020/12/20 06:49:20;;;;;;;;;;;4.40;99.90;;;;;;5102116;28;19928;-72
2020/12/20 06:51:46;;;;;;;;;;;4.40;99.90;;;;;;5113097;28;19924;-72
2020/12/20 06:54:13;;;;;;;;;;;4.40;99.90;;;;;;5106693;28;20380;-72
2020/12/20 06:56:39;;;;;;;;;;;4.30;99.90;;;;;;5095981;28;19924;-74
2020/12/20 06:59:06;;;;;;;;;;;4.30;99.90;;;;;;5096431;28;20329;-71
2020/12/20 07:01:33;;;;;;;;;;;4.30;99.90;;;;;;5099171;28;19926;-76
2020/12/20 07:04:00;;;;;;;;;;;4.30;99.90;;;;;;5096987;28;19924;-70
2020/12/20 07:06:26;;;;;;;;;;;4.30;99.90;;;;;;5111537;28;20303;-71
2020/12/20 07:08:54;;;;;;;;;;;4.30;99.90;;;;;;5108942;28;19924;-71
2020/12/20 07:11:21;;;;;;;;;;;4.30;99.90;;;;;;5110084;28;19923;-71
2020/12/20 07:13:48;;;;;;;;;;;4.40;99.90;;;;;;5095879;28;20338;-71
2020/12/20 07:16:16;;;;;;;;;;;4.40;99.90;;;;;;5109978;28;19924;-78
2020/12/20 07:18:47;;;;;;;;;;;4.40;99.90;;;;;;5109805;28;19924;-71
2020/12/20 07:21:28;;;;;;;;;;;4.40;99.90;;;;;;5105277;28;19930;-79
2020/12/20 07:24:00;;;;;;;;;;;4.40;99.90;;;;;;5098440;28;19967;-71
2020/12/20 07:26:26;;;;;;;;;;;4.30;99.90;;;;;;5105448;28;19923;-71
2020/12/20 07:28:57;;;;;;;;;;;4.30;99.90;;;;;;5110724;28;19924;-72
2020/12/20 07:31:24;;;;;;;;;;;4.20;99.90;;;;;;5109572;28;20330;-72
2020/12/20 07:33:51;;;;;;;;;;;4.20;99.90;;;;;;5104766;28;20304;-71
2020/12/20 07:36:18;;;;;;;;;;;4.20;99.90;;;;;;5105767;28;19924;-72
2020/12/20 07:38:45;;;;;;;;;;;4.10;99.90;;;;;;5095475;28;19924;-70
2020/12/20 07:41:12;;;;;;;;;;;4.00;99.90;;;;;;5109899;28;19924;-81
2020/12/20 07:43:38;;;;;;;;;;;4.00;99.90;;;;;;5114878;28;19923;-70
2020/12/20 07:46:05;;;;;;;;;;;4.00;99.90;;;;;;5095125;28;19971;-71
2020/12/20 07:48:32;;;;;;;;;;;4.00;99.90;;;;;;5101707;28;19931;-72
2020/12/20 07:51:07;;;;;;;;;;;4.00;99.90;;;;;;5103546;28;20400;-70
2020/12/20 07:53:33;;;;;;;;;;;4.00;99.90;;;;;;5104884;28;19947;-72
2020/12/20 07:56:00;;;;;;;;;;;3.90;99.90;;;;;;5099062;28;19924;-72
2020/12/20 07:58:29;;;;;;;;;;;4.00;99.90;;;;;;5111114;28;20030;-72
2020/12/20 08:01:01;;;;;;;;;;;4.00;99.90;;;;;;5112112;28;20025;-79
2020/12/20 08:03:27;;;;;;;;;;;4.00;99.90;;;;;;5111662;28;19924;-72
2020/12/20 08:06:03;;;;;;;;;;;4.00;99.90;;;;;;5112743;28;19923;-72
2020/12/20 08:08:30;;;;;;;;;;;4.10;99.90;;;;;;5108783;28;20765;-72
2020/12/20 08:10:56;;;;;;;;;;;4.00;99.90;;;;;;5106512;28;19930;-71
2020/12/20 08:13:23;;;;;;;;;;;4.00;99.90;;;;;;5106022;28;20361;-72
2020/12/20 08:15:49;;;;;;;;;;;4.10;99.90;;;;;;5108121;28;20380;-72
2020/12/20 08:18:16;;;;;;;;;;;4.10;99.90;;;;;;5102773;28;19935;-72
2020/12/20 08:20:42;;;;;;;;;;;4.00;99.90;;;;;;5094480;28;19924;-72
2020/12/20 08:23:10;;;;;;;;;;;4.00;99.90;;;;;;5106319;28;19923;-77
2020/12/20 08:25:37;;;;;;;;;;;4.00;99.90;;;;;;5098718;28;20300;-72
2020/12/20 08:28:03;;;;;;;;;;;4.00;99.90;;;;;;5106673;28;20420;-72
2020/12/20 08:30:29;;;;;;;;;;;4.00;99.90;;;;;;5111098;28;19998;-72
2020/12/20 08:32:56;;;;;;;;;;;4.10;99.90;;;;;;5104669;28;19988;-72
2020/12/20 08:35:22;;;;;;;;;;;4.00;99.90;;;;;;5111891;28;19923;-76
2020/12/20 08:37:53;;;;;;;;;;;4.00;99.90;;;;;;5101953;28;20292;-72
2020/12/20 08:40:20;;;;;;;;;;;4.00;99.90;;;;;;5111599;28;19923;-70
2020/12/20 08:42:47;;;;;;;;;;;4.00;99.90;;;;;;5105179;28;20299;-70
2020/12/20 08:45:14;;;;;;;;;;;4.00;99.90;;;;;;5109300;28;19924;-71
2020/12/20 08:47:40;;;;;;;;;;;4.00;99.90;;;;;;5113933;28;19924;-71
2020/12/20 08:50:07;;;;;;;;;;;4.00;99.90;;;;;;5113063;28;20311;-70
2020/12/20 08:52:33;;;;;;;;;;;4.00;99.90;;;;;;5100471;28;19924;-71
2020/12/20 08:55:01;;;;;;;;;;;4.00;99.90;;;;;;5110407;28;19969;-71
2020/12/20 08:57:28;;;;;;;;;;;4.00;99.90;;;;;;5115052;28;19923;-71
2020/12/20 08:59:55;;;;;;;;;;;4.00;99.90;;;;;;5098043;28;19992;-70
2020/12/20 09:02:22;;;;;;;;;;;4.00;99.90;;;;;;5095326;28;19924;-70
2020/12/20 09:04:55;;;;;;;;;;;4.20;99.90;;;;;;5104215;28;19923;-70
2020/12/20 09:07:29;;;;;;;;;;;4.20;99.90;;;;;;5115582;28;19978;-70
2020/12/20 09:10:00;;;;;;;;;;;4.30;99.90;;;;;;5112298;28;20373;-70
2020/12/20 09:12:28;;;;;;;;;;;4.30;99.90;;;;;;5115510;28;20314;-71
2020/12/20 09:15:08;;;;;;;;;;;4.30;99.90;;;;;;5113136;28;20380;-71
2020/12/20 09:17:39;;;;;;;;;;;4.40;99.90;;;;;;5115133;28;20387;-71
2020/12/20 09:20:07;;;;;;;;;;;4.40;99.90;;;;;;5112288;28;19973;-71
2020/12/20 09:22:44;;;;;;;;;;;4.50;99.90;;;;;;5114114;28;20422;-70
2020/12/20 09:25:11;;;;;;;;;;;4.40;99.90;;;;;;5111439;28;19923;-80
2020/12/20 09:27:38;;;;;;;;;;;4.40;99.90;;;;;;5112039;28;19968;-70
2020/12/20 09:30:05;;;;;;;;;;;4.40;99.90;;;;;;5098814;28;19924;-70
2020/12/20 09:32:35;;;;;;;;;;;4.30;99.90;;;;;;5114834;28;19928;-70
2020/12/20 09:35:03;;;;;;;;;;;4.30;99.90;;;;;;5112632;28;19924;-73
2020/12/20 09:37:29;;;;;;;;;;;4.30;99.90;;;;;;5114661;28;19930;-77
2020/12/20 09:39:56;;;;;;;;;;;4.40;99.90;;;;;;5111943;28;19981;-72
2020/12/20 09:42:23;;;;;;;;;;;4.40;99.90;;;;;;5114725;28;19923;-72
2020/12/20 09:44:50;;;;;;;;;;;4.40;99.90;;;;;;5113672;28;19924;-71
2020/12/20 09:47:17;;;;;;;;;;;4.30;99.90;;;;;;5111285;28;19963;-70
2020/12/20 09:49:43;;;;;;;;;;;4.30;99.90;;;;;;5115135;28;20309;-71
2020/12/20 09:52:10;;;;;;;;;;;4.40;99.90;;;;;;5112905;28;19924;-70
2020/12/20 09:54:44;;;;;;;;;;;4.50;99.90;;;;;;5094826;28;19930;-70
2020/12/20 09:57:10;;;;;;;;;;;4.40;99.90;;;;;;5110562;28;20346;-78
2020/12/20 09:59:37;;;;;;;;;;;4.40;99.90;;;;;;5114824;28;20292;-71
2020/12/20 10:02:04;;;;;;;;;;;4.50;99.90;;;;;;5112268;28;19924;-71
2020/12/20 10:04:34;;;;;;;;;;;4.40;99.90;;;;;;5097683;28;20019;-71
2020/12/20 10:07:00;;;;;;;;;;;4.50;99.90;;;;;;5107630;28;19923;-71
2020/12/20 10:09:27;;;;;;;;;;;4.50;99.90;;;;;;5112673;28;19923;-70
2020/12/20 10:11:53;;;;;;;;;;;4.50;99.90;;;;;;5103972;28;20356;-70
2020/12/20 10:14:19;;;;;;;;;;;4.60;99.90;;;;;;5113465;28;19977;-71
2020/12/20 10:16:46;;;;;;;;;;;4.50;99.90;;;;;;5112226;28;19955;-71
2020/12/20 10:19:13;;;;;;;;;;;4.50;99.90;;;;;;5113702;28;19923;-71
2020/12/20 10:21:39;;;;;;;;;;;4.50;99.90;;;;;;5110579;28;19924;-71
2020/12/20 10:24:06;;;;;;;;;;;4.60;99.90;;;;;;5114524;28;20380;-70
2020/12/20 10:26:32;;;;;;;;;;;4.70;99.90;;;;;;5113874;28;20000;-74
2020/12/20 10:28:58;;;;;;;;;;;4.70;99.90;;;;;;5101655;28;19931;-70
2020/12/20 10:31:25;;;;;;;;;;;4.60;99.90;;;;;;5113251;28;19923;-71
2020/12/20 10:33:51;;;;;;;;;;;4.70;99.90;;;;;;5109569;28;19967;-70
2020/12/20 10:36:18;;;;;;;;;;;4.60;99.90;;;;;;5114635;28;20368;-71
2020/12/20 10:38:45;;;;;;;;;;;4.60;99.90;;;;;;5110531;28;20360;-70
2020/12/20 10:41:11;;;;;;;;;;;4.60;99.90;;;;;;5114108;28;19951;-77
2020/12/20 10:43:38;;;;;;;;;;;4.60;99.90;;;;;;5110821;28;20000;-71
2020/12/20 10:46:04;;;;;;;;;;;4.60;99.90;;;;;;5094387;28;19989;-71
2020/12/20 10:48:30;;;;;;;;;;;4.60;99.90;;;;;;5109963;28;20011;-70
2020/12/20 10:50:57;;;;;;;;;;;4.70;99.90;;;;;;5113781;28;20002;-70
2020/12/20 10:53:24;;;;;;;;;;;4.60;99.90;;;;;;5110815;28;20269;-70
2020/12/20 10:55:50;;;;;;;;;;;4.70;99.90;;;;;;5097692;28;19932;-70
2020/12/20 10:58:16;;;;;;;;;;;4.70;99.90;;;;;;5110761;28;20333;-71
2020/12/20 11:00:43;;;;;;;;;;;4.70;99.90;;;;;;5101360;28;19924;-71
2020/12/20 11:03:09;;;;;;;;;;;4.80;99.90;;;;;;5106533;28;19924;-71
2020/12/20 11:05:36;;;;;;;;;;;4.70;99.90;;;;;;5112964;28;19924;-71
2020/12/20 11:08:02;;;;;;;;;;;4.70;99.90;;;;;;5113610;27;19963;-71
2020/12/20 11:10:30;;;;;;;;;;;4.70;99.90;;;;;;5109815;28;20014;-74
2020/12/20 11:12:56;;;;;;;;;;;4.80;99.90;;;;;;5113164;28;19928;-70
2020/12/20 11:15:22;;;;;;;;;;;4.80;99.90;;;;;;5109224;28;19973;-70
2020/12/20 11:17:49;;;;;;;;;;;4.70;99.90;;;;;;5113837;28;20429;-70
2020/12/20 11:20:15;;;;;;;;;;;4.70;99.90;;;;;;5108306;28;19955;-71
2020/12/20 11:22:41;;;;;;;;;;;4.70;99.90;;;;;;5102450;28;20377;-70
2020/12/20 11:25:08;;;;;;;;;;;4.70;99.90;;;;;;5102521;28;19931;-70
2020/12/20 11:27:35;;;;;;;;;;;4.70;99.90;;;;;;5113074;28;19927;-70
2020/12/20 11:30:01;;;;;;;;;;;4.70;99.90;;;;;;5110780;28;19923;-70
2020/12/20 11:32:28;;;;;;;;;;;4.70;99.90;;;;;;5112705;28;19984;-70
2020/12/20 11:34:54;;;;;;;;;;;4.80;99.90;;;;;;5108831;28;19976;-70
2020/12/20 11:37:20;;;;;;;;;;;4.80;99.90;;;;;;5112642;28;19930;-70
2020/12/20 11:39:47;;;;;;;;;;;4.70;99.90;;;;;;5109227;28;19931;-70
2020/12/20 11:42:13;;;;;;;;;;;4.70;99.90;;;;;;5098172;28;19959;-70
2020/12/20 11:44:40;;;;;;;;;;;4.60;99.90;;;;;;5091500;28;19924;-73
2020/12/20 11:47:07;;;;;;;;;;;4.70;99.90;;;;;;5101326;28;19966;-70
2020/12/20 11:49:33;;;;;;;;;;;4.70;99.90;;;;;;5108710;28;19923;-71
2020/12/20 11:51:59;;;;;;;;;;;4.80;99.90;;;;;;5109950;28;20010;-72
2020/12/20 11:54:26;;;;;;;;;;;4.80;99.90;;;;;;5102799;28;20022;-71
2020/12/20 11:56:52;;;;;;;;;;;4.80;99.90;;;;;;5106413;28;19949;-70
2020/12/20 11:59:18;;;;;;;;;;;4.80;99.90;;;;;;5112112;28;20387;-71
2020/12/20 12:01:45;;;;;;;;;;;4.80;99.90;;;;;;5110157;28;19930;-73
2020/12/20 12:04:12;;;;;;;;;;;4.80;99.90;;;;;;5110688;28;19947;-74
2020/12/20 12:06:41;;;;;;;;;;;4.80;99.90;;;;;;5109030;28;19945;-70
2020/12/20 12:09:07;;;;;;;;;;;4.90;99.90;;;;;;5111629;28;19930;-70
2020/12/20 12:11:34;;;;;;;;;;;4.80;99.90;;;;;;5104963;28;20393;-72
2020/12/20 12:14:00;;;;;;;;;;;4.80;99.90;;;;;;5112208;28;19924;-71
2020/12/20 12:16:26;;;;;;;;;;;4.80;99.90;;;;;;5108899;28;19976;-71
2020/12/20 12:18:54;;;;;;;;;;;4.80;99.90;;;;;;5106600;28;19973;-71
2020/12/20 12:21:20;;;;;;;;;;;4.90;99.90;;;;;;5107458;28;19932;-71
2020/12/20 12:23:47;;;;;;;;;;;4.90;99.90;;;;;;5112528;28;20318;-71
2020/12/20 12:26:13;;;;;;;;;;;4.90;99.90;;;;;;5110584;28;19924;-75
2020/12/20 12:28:40;;;;;;;;;;;4.90;99.90;;;;;;5111967;28;19978;-71
2020/12/20 12:31:06;;;;;;;;;;;4.90;99.90;;;;;;5110930;28;19931;-71
2020/12/20 12:33:32;;;;;;;;;;;4.80;99.90;;;;;;5108512;28;20007;-73
2020/12/20 12:36:00;;;;;;;;;;;4.90;99.90;;;;;;5095376;28;19924;-71
2020/12/20 12:38:26;;;;;;;;;;;4.90;99.90;;;;;;5107179;28;19963;-71
2020/12/20 12:40:52;;;;;;;;;;;5.00;99.90;;;;;;5106468;28;19925;-71
2020/12/20 12:43:19;;;;;;;;;;;5.10;99.90;;;;;;5109206;28;19993;-71
2020/12/20 12:45:45;;;;;;;;;;;5.00;99.90;;;;;;5112290;28;20026;-71
2020/12/20 12:48:12;;;;;;;;;;;5.00;99.90;;;;;;5104027;28;20380;-73
2020/12/20 12:50:38;;;;;;;;;;;5.00;99.90;;;;;;5103976;28;20390;-71
2020/12/20 12:53:05;;;;;;;;;;;4.90;99.90;;;;;;5101722;28;19959;-71
2020/12/20 12:55:31;;;;;;;;;;;5.00;99.90;;;;;;5111423;28;20432;-73
2020/12/20 12:57:58;;;;;;;;;;;5.00;99.90;;;;;;5107676;28;20402;-71
2020/12/20 13:00:24;;;;;;;;;;;4.90;99.90;;;;;;5105868;28;20377;-71
2020/12/20 13:02:51;;;;;;;;;;;5.00;99.90;;;;;;5091865;28;19970;-71
2020/12/20 13:05:18;;;;;;;;;;;5.10;99.90;;;;;;5098940;28;19974;-71
2020/12/20 13:07:44;;;;;;;;;;;5.00;99.90;;;;;;5097965;28;19924;-71
2020/12/20 13:10:11;;;;;;;;;;;5.10;99.90;;;;;;5107374;28;20011;-83
2020/12/20 13:12:38;;;;;;;;;;;5.10;99.90;;;;;;5104631;28;19921;-72
2020/12/20 13:15:04;;;;;;;;;;;5.10;99.90;;;;;;5104556;28;19931;-72
2020/12/20 13:17:30;;;;;;;;;;;5.10;99.90;;;;;;5105202;28;20302;-77
2020/12/20 13:19:57;;;;;;;;;;;5.10;99.90;;;;;;5109099;28;20030;-72
2020/12/20 13:22:23;;;;;;;;;;;5.10;99.90;;;;;;5111344;28;19928;-72
2020/12/20 13:24:50;;;;;;;;;;;5.10;99.90;;;;;;5098855;28;19924;-71
2020/12/20 13:27:17;;;;;;;;;;;5.00;99.90;;;;;;5090911;28;19928;-70
2020/12/20 13:29:43;;;;;;;;;;;5.10;99.90;;;;;;5101607;28;19981;-71
2020/12/20 13:32:10;;;;;;;;;;;5.20;99.90;;;;;;5115725;28;19924;-71
2020/12/20 13:34:36;;;;;;;;;;;5.10;99.90;;;;;;5110344;28;20436;-71
2020/12/20 13:37:03;;;;;;;;;;;5.00;99.90;;;;;;5115679;28;19924;-70
2020/12/20 13:39:29;;;;;;;;;;;5.10;99.90;;;;;;5111851;28;19990;-71
2020/12/20 13:41:55;;;;;;;;;;;5.00;99.90;;;;;;5106384;28;20023;-70
2020/12/20 13:44:23;;;;;;;;;;;5.00;99.90;;;;;;5104273;28;19924;-70
2020/12/20 13:46:50;;;;;;;;;;;5.10;99.90;;;;;;5113329;28;19924;-71
2020/12/20 13:49:16;;;;;;;;;;;5.10;99.90;;;;;;5114632;28;19981;-71
2020/12/20 13:51:42;;;;;;;;;;;5.10;99.90;;;;;;5112420;28;20280;-71
2020/12/20 13:54:09;;;;;;;;;;;5.10;99.90;;;;;;5111146;28;19958;-70
2020/12/20 13:56:35;;;;;;;;;;;5.10;99.90;;;;;;5094089;28;19920;-70
2020/12/20 13:59:02;;;;;;;;;;;5.20;99.90;;;;;;5094851;28;20011;-71
2020/12/20 14:01:29;;;;;;;;;;;5.20;99.90;;;;;;5108967;28;20011;-72
2020/12/20 14:03:55;;;;;;;;;;;5.20;99.90;;;;;;5113734;28;20283;-71
2020/12/20 14:06:22;;;;;;;;;;;5.20;99.90;;;;;;5111235;28;20030;-70
2020/12/20 14:08:48;;;;;;;;;;;5.10;99.90;;;;;;5114251;28;19924;-71
2020/12/20 14:11:15;;;;;;;;;;;5.10;99.90;;;;;;5102651;28;19923;-71
2020/12/20 14:13:41;;;;;;;;;;;5.10;99.90;;;;;;5114413;28;20317;-71
2020/12/20 14:16:11;;;;;;;;;;;5.10;99.90;;;;;;5108200;28;19924;-71
2020/12/20 14:18:39;;;;;;;;;;;5.10;99.90;;;;;;5111896;28;19924;-71
2020/12/20 14:21:05;;;;;;;;;;;5.10;99.90;;;;;;5110442;28;19942;-71
2020/12/20 14:23:32;;;;;;;;;;;5.10;99.90;;;;;;5112120;28;20463;-73
2020/12/20 14:25:58;;;;;;;;;;;5.10;99.90;;;;;;5111587;28;19931;-71
2020/12/20 14:28:24;;;;;;;;;;;5.10;99.90;;;;;;5110013;28;19998;-71
2020/12/20 14:30:51;;;;;;;;;;;5.20;99.90;;;;;;5109974;28;19924;-73
2020/12/20 14:33:17;;;;;;;;;;;5.10;99.90;;;;;;5111445;28;19924;-71
2020/12/20 14:35:48;;;;;;;;;;;5.20;99.90;;;;;;5114296;28;20014;-71
2020/12/20 14:38:15;;;;;;;;;;;5.20;99.90;;;;;;5108405;28;20303;-72
2020/12/20 14:40:42;;;;;;;;;;;5.20;99.90;;;;;;5105405;28;20018;-71